createdAt,value
2022-12-23T00:02:08.341Z,95464.38
2022-12-23T00:05:02.144Z,95457.06
2022-12-23T00:07:30.990Z,95460.69
2022-12-23T00:10:01.333Z,95454.50
2022-12-23T00:12:47.551Z,95451.34
2022-12-23T00:15:16.675Z,95454.19
2022-12-23T00:17:46.903Z,95441.00
2022-12-23T00:20:16.680Z,95441.88
2022-12-23T00:23:02.811Z,95439.13
2022-12-23T00:25:42.319Z,95435.59
2022-12-23T00:28:12.773Z,95421.47
2022-12-23T00:30:48.145Z,95425.09
2022-12-23T00:33:17.760Z,95422.25
2022-12-23T00:35:47.056Z,95415.13
2022-12-23T00:38:16.298Z,95420.91
2022-12-23T00:41:15.428Z,95423.34
2022-12-23T00:43:45.800Z,95425.50
2022-12-23T00:46:15.216Z,95419.53
2022-12-23T00:49:01.685Z,95425.09
2022-12-23T00:51:32.334Z,95431.00
2022-12-23T00:54:01.248Z,95437.78
2022-12-23T00:56:31.326Z,95437.00
2022-12-23T00:59:00.135Z,95433.75
2022-12-23T01:01:46.586Z,95441.97
2022-12-23T01:04:32.905Z,95428.16
2022-12-23T01:07:01.534Z,95451.69
2022-12-23T01:09:30.514Z,95445.03
2022-12-23T01:12:00.908Z,95440.16
2022-12-23T01:14:30.240Z,95445.75
2022-12-23T01:16:59.087Z,95438.75
2022-12-23T01:19:27.884Z,95435.19
2022-12-23T01:21:56.418Z,95430.31
2022-12-23T01:24:25.319Z,95430.13
2022-12-23T01:26:54.084Z,95424.69
2022-12-23T01:29:24.202Z,95424.38
2022-12-23T01:31:52.580Z,95428.34
2022-12-23T01:34:21.774Z,95428.13
2022-12-23T01:40:50.490Z,95420.44
2022-12-23T01:43:19.627Z,95420.22
2022-12-23T01:45:50.244Z,95407.44
2022-12-23T01:48:22.398Z,95408.25
2022-12-23T01:50:53.266Z,95408.88
2022-12-23T01:53:27.300Z,95400.44
2022-12-23T01:55:59.479Z,95402.19
2022-12-23T01:58:30.718Z,95405.50
2022-12-23T02:01:18.330Z,95406.34
2022-12-23T02:03:49.482Z,95409.50
2022-12-23T02:06:40.135Z,95411.09
2022-12-23T02:09:21.511Z,95402.09
2022-12-23T02:12:27.564Z,95394.25
2022-12-23T02:15:25.110Z,95397.41
2022-12-23T02:18:02.358Z,95401.47
2022-12-23T02:21:03.243Z,95400.56
2022-12-23T02:24:28.938Z,95394.78
2022-12-23T02:27:11.310Z,95396.38
2022-12-23T02:30:16.628Z,95396.38
2022-12-23T02:32:58.432Z,95383.00
2022-12-23T02:35:31.982Z,95391.81
2022-12-23T02:38:08.929Z,95385.84
2022-12-23T02:40:40.933Z,95380.88
2022-12-23T02:43:14.758Z,95377.72
2022-12-23T02:45:45.533Z,95374.88
2022-12-23T02:48:19.280Z,95383.41
2022-12-23T02:50:49.206Z,95377.91
2022-12-23T02:53:23.433Z,95382.09
2022-12-23T02:55:53.980Z,95381.78
2022-12-23T02:58:25.342Z,95373.06
2022-12-23T03:00:58.001Z,95362.91
2022-12-23T03:03:28.250Z,95366.84
2022-12-23T03:05:57.355Z,95351.72
2022-12-23T03:08:28.115Z,95347.69
2022-12-23T03:11:04.632Z,95343.59
2022-12-23T03:13:52.632Z,95352.25
2022-12-23T03:16:31.830Z,95340.69
2022-12-23T03:19:09.947Z,95335.00
2022-12-23T03:21:42.691Z,95332.84
2022-12-23T03:24:22.689Z,95333.06
2022-12-23T03:26:55.553Z,95330.84
2022-12-23T03:29:27.922Z,95334.50
2022-12-23T03:36:55.158Z,95317.38
2022-12-23T03:39:30.600Z,95312.28
2022-12-23T03:42:08.607Z,95307.41
2022-12-23T03:44:38.885Z,95298.91
2022-12-23T03:47:12.142Z,95291.28
2022-12-23T03:49:44.659Z,95286.81
2022-12-23T03:52:21.147Z,95295.53
2022-12-23T03:54:53.697Z,95290.75
2022-12-23T03:57:23.758Z,95284.56
2022-12-23T03:59:53.653Z,95295.09
2022-12-23T04:02:27.511Z,95304.34
2022-12-23T04:05:17.914Z,95314.59
2022-12-23T04:08:00.621Z,95308.31
2022-12-23T04:10:31.549Z,95316.84
2022-12-23T04:13:00.796Z,95310.34
2022-12-23T04:15:29.706Z,95318.56
2022-12-23T04:18:02.468Z,95319.47
2022-12-23T04:20:31.062Z,95314.41
2022-12-23T04:23:03.036Z,95321.09
2022-12-23T04:25:32.923Z,95314.81
2022-12-23T04:28:01.768Z,95311.34
2022-12-23T04:30:34.736Z,95303.63
2022-12-23T04:33:04.109Z,95302.72
2022-12-23T04:35:32.600Z,95298.66
2022-12-23T04:38:01.721Z,95311.44
2022-12-23T04:40:30.499Z,95316.63
2022-12-23T04:43:00.597Z,95322.53
2022-12-23T04:45:31.423Z,95317.56
2022-12-23T04:48:00.296Z,95322.03
2022-12-23T04:50:29.242Z,95330.63
2022-12-23T04:52:58.032Z,95321.50
2022-12-23T04:55:26.980Z,95315.63
2022-12-23T04:58:24.379Z,95323.13
2022-12-23T05:01:03.219Z,95324.75
2022-12-23T05:03:32.306Z,95314.50
2022-12-23T05:06:01.020Z,95320.47
2022-12-23T05:08:29.716Z,95325.56
2022-12-23T05:10:58.906Z,95315.31
2022-12-23T05:13:33.137Z,95316.13
2022-12-23T05:16:01.915Z,95311.75
2022-12-23T05:18:30.424Z,95319.47
2022-12-23T05:20:58.789Z,95310.22
2022-12-23T05:23:27.452Z,95305.88
2022-12-23T05:25:56.812Z,95310.34
2022-12-23T05:28:27.865Z,95303.44
2022-12-23T05:31:02.657Z,95300.78
2022-12-23T05:33:31.492Z,95289.66
2022-12-23T05:36:00.181Z,95289.53
2022-12-23T05:38:29.115Z,95288.81
2022-12-23T05:40:57.703Z,95286.41
2022-12-23T05:43:26.689Z,95288.94
2022-12-23T05:45:55.701Z,95293.28
2022-12-23T05:48:25.989Z,95289.31
2022-12-23T05:50:55.956Z,95278.19
2022-12-23T05:53:25.968Z,95284.97
2022-12-23T05:55:54.440Z,95285.78
2022-12-23T05:58:23.396Z,95281.31
2022-12-23T06:00:52.845Z,95281.31
2022-12-23T06:03:22.334Z,95282.81
2022-12-23T06:05:54.692Z,95289.66
2022-12-23T06:08:23.112Z,95285.47
2022-12-23T06:10:51.790Z,95297.16
2022-12-23T06:13:20.472Z,95304.88
2022-12-23T06:15:49.537Z,95302.94
2022-12-23T06:18:18.187Z,95304.53
2022-12-23T06:20:47.723Z,95303.72
2022-12-23T06:23:17.735Z,95296.94
2022-12-23T06:25:46.147Z,95291.84
2022-12-23T06:29:05.035Z,95299.38
2022-12-23T06:31:33.929Z,95302.72
2022-12-23T06:34:02.562Z,95300.97
2022-12-23T06:36:32.344Z,95296.59
2022-12-23T06:39:03.039Z,95304.94
2022-12-23T06:41:31.573Z,95312.56
2022-12-23T06:44:00.187Z,95306.47
2022-12-23T06:46:29.198Z,95302.06
2022-12-23T06:48:58.134Z,95298.97
2022-12-23T06:51:26.638Z,95297.72
2022-12-23T06:53:55.264Z,95297.59
2022-12-23T06:56:25.369Z,95303.38
2022-12-23T06:58:54.543Z,95299.97
2022-12-23T07:01:23.444Z,95304.09
2022-12-23T07:03:52.168Z,95293.03
2022-12-23T07:06:20.701Z,95302.06
2022-12-23T07:08:49.437Z,95302.63
2022-12-23T07:11:17.820Z,95299.66
2022-12-23T07:13:48.120Z,95308.59
2022-12-23T07:16:16.764Z,95306.66
2022-12-23T07:18:45.225Z,95302.78
2022-12-23T07:21:21.550Z,95315.25
2022-12-23T07:23:53.522Z,95318.13
2022-12-23T07:26:22.614Z,95316.47
2022-12-23T07:28:52.910Z,95319.50
2022-12-23T07:31:21.693Z,95328.53
2022-12-23T07:33:50.308Z,95319.22
2022-12-23T07:36:19.256Z,95314.13
2022-12-23T07:38:51.797Z,95329.25
2022-12-23T07:41:20.672Z,95330.88
2022-12-23T07:43:49.407Z,95327.41
2022-12-23T07:46:19.416Z,95325.56
2022-12-23T07:48:48.508Z,95325.69
2022-12-23T07:51:17.595Z,95322.22
2022-12-23T07:53:50.107Z,95329.16
2022-12-23T07:56:18.699Z,95324.66
2022-12-23T07:58:50.110Z,95334.28
2022-12-23T08:01:20.920Z,95335.91
2022-12-23T08:03:49.865Z,95331.84
2022-12-23T08:06:18.757Z,95328.03
2022-12-23T08:08:48.117Z,95332.06
2022-12-23T08:11:17.151Z,95297.13
2022-12-23T08:13:56.075Z,95332.81
2022-12-23T08:16:25.944Z,95329.97
2022-12-23T08:18:54.990Z,95329.84
2022-12-23T08:21:23.740Z,95330.94
2022-12-23T08:23:53.125Z,95328.03
2022-12-23T08:26:23.335Z,95339.03
2022-12-23T08:28:53.880Z,95343.66
2022-12-23T08:31:24.191Z,95345.19
2022-12-23T08:33:55.827Z,95350.53
2022-12-23T08:36:26.201Z,95356.56
2022-12-23T08:38:56.171Z,95355.41
2022-12-23T08:41:26.846Z,95359.22
2022-12-23T08:43:56.688Z,95345.28
2022-12-23T08:46:26.379Z,95360.41
2022-12-23T08:48:56.516Z,95354.22
2022-12-23T08:51:26.348Z,95360.09
2022-12-23T08:54:00.189Z,95360.13
2022-12-23T08:56:33.777Z,95360.47
2022-12-23T08:59:03.067Z,95365.44
2022-12-23T09:01:34.042Z,95357.00
2022-12-23T09:04:04.990Z,95362.38
2022-12-23T09:06:35.994Z,95361.09
2022-12-23T09:09:06.013Z,95360.84
2022-12-23T09:11:35.309Z,95358.16
2022-12-23T09:14:04.101Z,95356.00
2022-12-23T09:16:33.463Z,95356.44
2022-12-23T09:19:02.105Z,95346.31
2022-12-23T09:21:32.363Z,95339.38
2022-12-23T09:24:01.026Z,95347.03
2022-12-23T09:26:57.396Z,95349.38
2022-12-23T09:32:24.558Z,95333.25
2022-12-23T09:34:53.292Z,95333.13
2022-12-23T09:37:23.280Z,95324.97
2022-12-23T09:39:52.160Z,95331.44
2022-12-23T09:42:30.240Z,95340.72
2022-12-23T09:45:07.039Z,95333.31
2022-12-23T09:47:36.527Z,95329.34
2022-12-23T09:50:21.068Z,95323.97
2022-12-23T09:52:58.819Z,95321.34
2022-12-23T09:55:32.772Z,95325.34
2022-12-23T09:58:03.705Z,95321.16
2022-12-23T10:00:38.912Z,95315.47
2022-12-23T10:03:18.263Z,95323.13
2022-12-23T10:05:53.592Z,95324.78
2022-12-23T10:08:28.452Z,95330.09
2022-12-23T10:11:00.584Z,95319.97
2022-12-23T10:13:36.032Z,95320.19
2022-12-23T10:16:13.944Z,95333.91
2022-12-23T10:18:48.281Z,95327.38
2022-12-23T10:21:22.128Z,95335.16
2022-12-23T10:23:55.445Z,95321.81
2022-12-23T10:26:26.229Z,95329.50
2022-12-23T10:28:57.792Z,95329.34
2022-12-23T10:31:41.528Z,95327.38
2022-12-23T10:34:18.405Z,95325.50
2022-12-23T10:36:52.169Z,95333.31
2022-12-23T10:39:29.219Z,95344.53
2022-12-23T10:42:08.236Z,95338.94
2022-12-23T10:45:27.454Z,95337.69
2022-12-23T10:48:08.617Z,95348.19
2022-12-23T10:50:51.581Z,95350.28
2022-12-23T10:53:32.773Z,95346.19
2022-12-23T10:56:03.975Z,95337.84
2022-12-23T10:58:46.732Z,95348.56
2022-12-23T11:01:24.152Z,95348.38
2022-12-23T11:04:01.450Z,95346.22
2022-12-23T11:06:36.840Z,95338.16
2022-12-23T11:09:17.375Z,95332.56
2022-12-23T11:12:01.917Z,95328.28
2022-12-23T11:14:37.183Z,95338.22
2022-12-23T11:17:07.213Z,95342.56
2022-12-23T11:19:35.998Z,95328.16
2022-12-23T11:22:05.202Z,95335.72
2022-12-23T11:24:41.254Z,95324.09
2022-12-23T11:27:16.959Z,95331.25
2022-12-23T11:29:47.620Z,95323.81
2022-12-23T11:32:19.392Z,95323.47
2022-12-23T11:34:48.603Z,95305.22
2022-12-23T11:37:31.814Z,95302.16
2022-12-23T11:40:00.416Z,95304.50
2022-12-23T11:42:31.950Z,95303.31
2022-12-23T11:45:01.789Z,95307.38
2022-12-23T11:47:35.649Z,95314.66
2022-12-23T11:50:27.749Z,95311.22
2022-12-23T11:53:03.121Z,95313.41
2022-12-23T11:55:45.722Z,95317.47
2022-12-23T11:58:20.950Z,95315.25
2022-12-23T12:00:56.351Z,95323.47
2022-12-23T12:03:29.237Z,95332.16
2022-12-23T12:05:59.841Z,95317.19
2022-12-23T12:08:33.173Z,95313.06
2022-12-23T12:11:08.426Z,95311.09
2022-12-23T12:13:44.908Z,95311.31
2022-12-23T12:16:25.300Z,95309.22
2022-12-23T12:18:56.456Z,95312.31
2022-12-23T12:21:28.004Z,95315.81
2022-12-23T12:24:17.742Z,95304.47
2022-12-23T12:26:51.403Z,95310.59
2022-12-23T12:29:26.213Z,95327.50
2022-12-23T12:31:59.832Z,95327.03
2022-12-23T12:34:41.866Z,95323.81
2022-12-23T12:37:19.837Z,95327.22
2022-12-23T12:39:53.600Z,95341.03
2022-12-23T12:42:28.290Z,95343.69
2022-12-23T12:45:05.272Z,95335.31
2022-12-23T12:47:53.735Z,95330.09
2022-12-23T12:50:28.101Z,95337.59
2022-12-23T12:52:58.403Z,95355.03
2022-12-23T12:55:29.879Z,95349.63
2022-12-23T12:57:58.506Z,95344.94
2022-12-23T13:00:28.975Z,95345.09
2022-12-23T13:03:16.197Z,95334.34
2022-12-23T13:05:59.866Z,95336.34
2022-12-23T13:08:42.118Z,95335.75
2022-12-23T13:11:14.227Z,95340.16
2022-12-23T13:13:48.360Z,95330.50
2022-12-23T13:16:27.772Z,95329.88
2022-12-23T13:19:00.087Z,95330.50
2022-12-23T13:21:32.749Z,95343.00
2022-12-23T13:24:07.572Z,95335.47
2022-12-23T13:26:39.169Z,95342.63
2022-12-23T13:33:19.205Z,95341.72
2022-12-23T13:36:04.999Z,95331.50
2022-12-23T13:39:00.170Z,95330.16
2022-12-23T13:41:34.169Z,95302.81
2022-12-23T13:44:05.541Z,95341.22
2022-12-23T13:46:59.506Z,95327.34
2022-12-23T13:49:38.546Z,95328.44
2022-12-23T13:52:12.098Z,95319.81
2022-12-23T13:54:51.563Z,95319.44
2022-12-23T13:57:28.506Z,95314.56
2022-12-23T14:00:06.069Z,95312.66
2022-12-23T14:02:52.221Z,95310.25
2022-12-23T14:05:37.522Z,95313.47
2022-12-23T14:08:09.051Z,95319.81
2022-12-23T14:10:37.565Z,95303.50
2022-12-23T14:13:10.451Z,95307.31
2022-12-23T14:16:01.152Z,95246.31
2022-12-23T14:18:43.428Z,95304.34
2022-12-23T14:21:20.740Z,95299.75
2022-12-23T14:24:04.509Z,95314.84
2022-12-23T14:26:55.147Z,95314.44
2022-12-23T14:29:51.180Z,95309.59
2022-12-23T14:32:22.633Z,95319.69
2022-12-23T14:35:23.407Z,95309.06
2022-12-23T14:38:27.634Z,95307.59
2022-12-23T14:41:17.578Z,95303.41
2022-12-23T14:43:59.848Z,95306.22
2022-12-23T14:46:58.309Z,95307.84
2022-12-23T14:49:43.503Z,95293.69
2022-12-23T14:53:00.134Z,95295.72
2022-12-23T14:59:30.461Z,95287.63
2022-12-23T15:02:00.963Z,95282.38
2022-12-23T15:04:31.837Z,95284.16
2022-12-23T15:07:04.460Z,95283.59
2022-12-23T15:09:36.317Z,95291.13
2022-12-23T15:12:12.572Z,95296.38
2022-12-23T15:14:46.538Z,95299.19
2022-12-23T15:17:19.559Z,95298.69
2022-12-23T15:19:48.894Z,95300.41
2022-12-23T15:22:24.064Z,95303.78
2022-12-23T15:25:03.405Z,95306.03
2022-12-23T15:27:34.168Z,95296.63
2022-12-23T15:30:04.427Z,95313.34
2022-12-23T15:32:33.369Z,95306.59
2022-12-23T15:35:05.375Z,95300.00
2022-12-23T15:37:34.600Z,95294.91
2022-12-23T15:40:11.902Z,95293.81
2022-12-23T15:42:48.139Z,95283.84
2022-12-23T15:45:35.807Z,95290.03
2022-12-23T15:48:05.216Z,95286.78
2022-12-23T15:50:43.679Z,95292.16
2022-12-23T15:53:14.872Z,95299.16
2022-12-23T15:55:43.495Z,95299.41
2022-12-23T15:58:33.170Z,95286.63
2022-12-23T16:01:03.994Z,95293.06
2022-12-23T16:03:35.236Z,95289.28
2022-12-23T16:06:20.221Z,95288.44
2022-12-23T16:08:58.329Z,95285.88
2022-12-23T16:11:43.693Z,95289.38
2022-12-23T16:14:50.903Z,95289.09
2022-12-23T16:17:27.315Z,95287.59
2022-12-23T16:19:56.801Z,95291.78
2022-12-23T16:22:29.929Z,95292.19
2022-12-23T16:25:11.628Z,95299.78
2022-12-23T16:27:49.087Z,95296.03
2022-12-23T16:30:19.944Z,95305.03
2022-12-23T16:32:52.929Z,95300.75
2022-12-23T16:35:34.452Z,95303.72
2022-12-23T16:38:19.959Z,95301.72
2022-12-23T16:40:50.530Z,95298.88
2022-12-23T16:43:19.400Z,95290.03
2022-12-23T16:45:51.776Z,95277.91
2022-12-23T16:48:27.831Z,95283.03
2022-12-23T16:50:56.532Z,95288.41
2022-12-23T16:53:25.388Z,95293.53
2022-12-23T16:56:00.245Z,95287.31
2022-12-23T16:58:29.684Z,95286.38
2022-12-23T17:00:58.561Z,95285.69
2022-12-23T17:03:30.427Z,95282.72
2022-12-23T17:05:59.544Z,95288.09
2022-12-23T17:08:28.375Z,95284.41
2022-12-23T17:11:00.549Z,95293.94
2022-12-23T17:13:29.134Z,95289.88
2022-12-23T17:15:57.899Z,95279.09
2022-12-23T17:18:28.162Z,95290.28
2022-12-23T17:20:59.361Z,95280.31
2022-12-23T17:23:29.868Z,95274.41
2022-12-23T17:25:58.800Z,95279.63
2022-12-23T17:28:32.180Z,95278.13
2022-12-23T17:31:07.159Z,95271.56
2022-12-23T17:33:42.691Z,95275.97
2022-12-23T17:36:12.908Z,95270.31
2022-12-23T17:38:41.902Z,95272.06
2022-12-23T17:41:19.138Z,95262.91
2022-12-23T17:43:47.506Z,95273.53
2022-12-23T17:46:17.803Z,95271.09
2022-12-23T17:48:48.153Z,95274.16
2022-12-23T17:51:18.026Z,95276.03
2022-12-23T17:53:47.476Z,95286.38
2022-12-23T17:56:20.002Z,95281.00
2022-12-23T17:58:50.200Z,95280.63
2022-12-23T18:01:20.423Z,95275.28
2022-12-23T18:03:50.475Z,95268.22
2022-12-23T18:06:21.579Z,95276.59
2022-12-23T18:08:50.411Z,95260.38
2022-12-23T18:11:23.357Z,95260.56
2022-12-23T18:13:52.676Z,95242.41
2022-12-23T18:16:21.463Z,95251.28
2022-12-23T18:18:52.184Z,95254.53
2022-12-23T18:21:23.161Z,95249.69
2022-12-23T18:23:52.059Z,95246.41
2022-12-23T18:26:22.840Z,95244.00
2022-12-23T18:28:52.944Z,95242.91
2022-12-23T18:31:23.374Z,95250.72
2022-12-23T18:33:53.651Z,95244.63
2022-12-23T18:36:25.080Z,95234.34
2022-12-23T18:38:54.139Z,95230.06
2022-12-23T18:41:23.112Z,95233.97
2022-12-23T18:43:52.006Z,95224.53
2022-12-23T18:46:21.426Z,95228.56
2022-12-23T18:48:51.678Z,95231.63
2022-12-23T18:51:22.627Z,95230.44
2022-12-23T18:53:51.388Z,95232.31
2022-12-23T18:56:21.512Z,95222.59
2022-12-23T18:58:51.633Z,95220.56
2022-12-23T19:01:20.672Z,95221.00
2022-12-23T19:03:49.834Z,95223.81
2022-12-23T19:06:18.564Z,95224.38
2022-12-23T19:08:48.458Z,95217.47
2022-12-23T19:11:19.101Z,95215.47
2022-12-23T19:13:48.417Z,95207.78
2022-12-23T19:16:18.477Z,95203.19
2022-12-23T19:18:48.803Z,95204.44
2022-12-23T19:21:18.594Z,95205.94
2022-12-23T19:23:48.561Z,95194.22
2022-12-23T19:26:17.507Z,95194.63
2022-12-23T19:28:48.351Z,95190.59
2022-12-23T19:31:17.987Z,95177.28
2022-12-23T19:33:48.071Z,95178.50
2022-12-23T19:36:18.722Z,95172.34
2022-12-23T19:38:49.114Z,95171.16
2022-12-23T19:41:18.026Z,95169.25
2022-12-23T19:43:47.668Z,95139.25
2022-12-23T19:46:17.544Z,95142.47
2022-12-23T19:48:51.704Z,95142.75
2022-12-23T19:51:20.559Z,95154.06
2022-12-23T19:54:01.573Z,95156.75
2022-12-23T19:56:33.393Z,95162.66
2022-12-23T19:59:02.630Z,95166.00
2022-12-23T20:01:31.272Z,95166.13
2022-12-23T20:04:00.005Z,95163.44
2022-12-23T20:06:31.012Z,95168.69
2022-12-23T20:09:04.500Z,95163.53
2022-12-23T20:11:35.657Z,95167.44
2022-12-23T20:14:04.577Z,95166.75
2022-12-23T20:16:33.800Z,95180.75
2022-12-23T20:19:02.628Z,95165.25
2022-12-23T20:21:31.058Z,95155.00
2022-12-23T20:24:01.128Z,95150.97
2022-12-23T20:26:30.574Z,95154.28
2022-12-23T20:28:59.993Z,95154.16
2022-12-23T20:31:29.970Z,95144.81
2022-12-23T20:33:59.364Z,95135.09
2022-12-23T20:36:30.818Z,95158.19
2022-12-23T20:39:02.525Z,95153.97
2022-12-23T20:41:32.905Z,95138.63
2022-12-23T20:44:32.953Z,95137.47
2022-12-23T20:46:51.560Z,95103.38
2022-12-23T20:49:21.212Z,95142.00
2022-12-23T20:51:50.350Z,95144.56
2022-12-23T20:54:22.737Z,95129.97
2022-12-23T20:56:54.159Z,95121.50
2022-12-23T20:59:22.877Z,95136.06
2022-12-23T21:01:52.816Z,95132.00
2022-12-23T21:04:22.885Z,95140.66
2022-12-23T21:06:53.445Z,95129.06
2022-12-23T21:09:24.063Z,95124.38
2022-12-23T21:11:53.172Z,95121.28
2022-12-23T21:14:22.098Z,95115.72
2022-12-23T21:16:51.175Z,95102.84
2022-12-23T21:19:21.760Z,95135.31
2022-12-23T21:21:51.205Z,95124.13
2022-12-23T21:24:20.987Z,95117.50
2022-12-23T21:26:56.490Z,95121.16
2022-12-23T21:29:26.645Z,95122.25
2022-12-23T21:31:55.783Z,95111.34
2022-12-23T21:34:25.374Z,95114.19
2022-12-23T21:36:54.271Z,95122.66
2022-12-23T21:39:23.359Z,95123.63
2022-12-23T21:41:53.274Z,95128.88
2022-12-23T21:44:22.408Z,95122.66
2022-12-23T21:46:52.357Z,95119.69
2022-12-23T21:49:21.777Z,95118.06
2022-12-23T21:51:50.547Z,95110.00
2022-12-23T21:54:19.349Z,95120.91
2022-12-23T21:56:48.258Z,95108.09
2022-12-23T21:59:18.783Z,95108.94
2022-12-23T22:01:48.334Z,95109.84
2022-12-23T22:04:17.565Z,95112.00
2022-12-23T22:06:46.902Z,95107.91
2022-12-23T22:09:17.593Z,95123.69
2022-12-23T22:11:46.519Z,95108.94
2022-12-23T22:14:16.576Z,95091.03
2022-12-23T22:16:46.915Z,95091.28
2022-12-23T22:19:15.749Z,95094.78
2022-12-23T22:21:46.816Z,95096.16
2022-12-23T22:24:16.284Z,95104.09
2022-12-23T22:26:45.607Z,95098.53
2022-12-23T22:29:14.332Z,95095.13
2022-12-23T22:31:49.174Z,95091.00
2022-12-23T22:34:19.573Z,95091.81
2022-12-23T22:36:48.805Z,95096.72
2022-12-23T22:39:21.663Z,95092.41
2022-12-23T22:41:51.421Z,95116.50
2022-12-23T22:44:20.721Z,95105.09
2022-12-23T22:46:51.023Z,95108.28
2022-12-23T22:49:19.663Z,95129.56
2022-12-23T22:51:49.510Z,95132.78
2022-12-23T22:54:18.278Z,95129.03
2022-12-23T22:57:02.342Z,95146.75
2022-12-23T22:59:31.254Z,95132.63
2022-12-23T23:02:05.369Z,95145.22
2022-12-23T23:04:34.686Z,95138.38
2022-12-23T23:07:03.375Z,95130.59
2022-12-23T23:09:32.401Z,95140.31
2022-12-23T23:12:00.959Z,95137.25
2022-12-23T23:14:51.300Z,95150.88
2022-12-23T23:17:22.366Z,95152.53
2022-12-23T23:19:51.259Z,95160.78
2022-12-23T23:22:23.809Z,95162.25
2022-12-23T23:24:52.614Z,95172.56
2022-12-23T23:27:21.514Z,95187.63
2022-12-23T23:29:50.394Z,95199.25
2022-12-23T23:32:20.555Z,95205.59
2022-12-23T23:34:49.481Z,95207.34
2022-12-23T23:37:20.301Z,95223.13
2022-12-23T23:39:49.338Z,95242.66
2022-12-23T23:42:18.068Z,95237.53
2022-12-23T23:44:46.635Z,95243.88
2022-12-23T23:47:15.149Z,95245.63
2022-12-23T23:49:47.207Z,95244.25
2022-12-23T23:52:15.714Z,95242.00
2022-12-23T23:54:44.812Z,95234.69
